Time;durP1;ratioP1;P1;durP2;ratioP2;P2;SDS_P1;SDS_P2;PMS_P1;PMS_P2;Temp;Humidity;BMP_temperature;BMP_pressure;BME280_temperature;BME280_humidity;BME280_pressure;Samples;Min_cycle;Max_cycle;Signal;HPM_P1;HPM_P2
2022/10/26 00:02:21;;;;;;;10.85;4.57;;;;;;;16.57;83.41;94921.47;5031816;28;20691;-62
2022/10/26 00:04:47;;;;;;;11.77;3.92;;;;;;;16.55;83.50;94920.03;5031594;28;20216;-60
2022/10/26 00:07:12;;;;;;;13.68;4.25;;;;;;;16.51;83.54;94918.75;5031925;28;20543;-60
2022/10/26 00:09:37;;;;;;;8.40;4.20;;;;;;;16.55;83.66;94918.28;5014058;28;20210;-61
2022/10/26 00:12:03;;;;;;;8.25;4.15;;;;;;;16.56;83.50;94919.88;5031707;28;20182;-63
2022/10/26 00:14:29;;;;;;;10.88;4.53;;;;;;;16.59;83.42;94923.88;5031696;28;20213;-63
2022/10/26 00:16:54;;;;;;;13.10;4.22;;;;;;;16.54;83.76;94924.34;5062486;22;20228;-64
2022/10/26 00:19:20;;;;;;;11.07;4.30;;;;;;;16.55;83.65;94925.16;5071366;28;20217;-61
2022/10/26 00:21:46;;;;;;;15.40;5.20;;;;;;;16.53;83.73;94927.91;5071301;28;20193;-60
2022/10/26 00:24:11;;;;;;;12.82;4.55;;;;;;;16.56;83.31;94932.69;5071283;28;20292;-63
2022/10/26 00:26:37;;;;;;;18.05;5.25;;;;;;;16.50;83.77;94920.50;5071688;28;20200;-63
2022/10/26 00:29:03;;;;;;;10.48;4.40;;;;;;;16.53;83.38;94927.91;5071451;28;20217;-61
2022/10/26 00:31:29;;;;;;;10.60;4.30;;;;;;;16.46;83.11;94937.16;5070365;28;20189;-63
2022/10/26 00:33:55;;;;;;;9.73;4.25;;;;;;;16.42;83.01;94940.22;5071070;28;20197;-64
2022/10/26 00:36:22;;;;;;;10.88;4.78;;;;;;;16.45;82.85;94950.16;5071333;28;20212;-62
2022/10/26 00:38:49;;;;;;;10.55;4.07;;;;;;;16.38;82.96;94934.56;5071156;28;20239;-63
2022/10/26 00:41:17;;;;;;;11.07;4.18;;;;;;;16.32;83.16;94932.63;5071049;28;20217;-61
2022/10/26 00:43:42;;;;;;;12.75;4.65;;;;;;;16.27;83.46;94927.19;5071091;28;20195;-64
2022/10/26 00:46:12;;;;;;;9.25;3.92;;;;;;;16.27;83.37;94922.06;5053063;28;20189;-62
2022/10/26 00:48:45;;;;;;;11.18;4.70;;;;;;;16.21;83.67;94920.13;5069530;28;20200;-64
2022/10/26 00:51:43;;;;;;;12.52;4.25;;;;;;;16.21;83.95;94919.31;5071230;28;20189;-59
2022/10/26 00:54:17;;;;;;;7.53;4.00;;;;;;;16.22;83.99;94913.22;5070784;28;20200;-63
2022/10/26 00:56:44;;;;;;;5.68;3.70;;;;;;;16.19;84.13;94904.09;5071327;28;20597;-63
2022/10/26 00:59:13;;;;;;;12.00;5.40;;;;;;;16.20;83.92;94905.66;5070747;28;20350;-61
2022/10/26 01:01:42;;;;;;;14.13;3.90;;;;;;;16.18;83.84;94905.03;5070912;28;20670;-60
2022/10/26 01:04:08;;;;;;;12.07;4.10;;;;;;;16.20;83.99;94915.94;5070696;28;20649;-61
2022/10/26 01:06:36;;;;;;;10.88;4.13;;;;;;;16.17;83.95;94898.31;5043075;23;20228;-63
2022/10/26 01:09:03;;;;;;;9.82;3.95;;;;;;;16.15;83.93;94904.53;5030712;28;20217;-60
2022/10/26 01:11:29;;;;;;;7.95;4.00;;;;;;;16.12;84.22;94902.31;5030757;28;20193;-62
2022/10/26 01:13:56;;;;;;;5.85;3.75;;;;;;;16.09;84.45;94902.59;5030622;28;20198;-62
2022/10/26 01:16:25;;;;;;;10.48;4.20;;;;;;;16.07;84.81;94894.28;5030591;28;20221;-63
2022/10/26 01:19:22;;;;;;;9.88;3.60;;;;;;;15.98;85.51;94879.84;5030603;28;20256;-60
2022/10/26 01:21:59;;;;;;;7.38;4.43;;;;;;;16.01;85.83;94880.31;5012322;28;20297;-63
2022/10/26 01:24:50;;;;;;;8.45;4.40;;;;;;;16.01;85.88;94875.19;5030712;28;20296;-60
2022/10/26 01:27:35;;;;;;;9.60;3.80;;;;;;;16.02;85.92;94879.34;5030583;28;20266;-64
2022/10/26 01:30:25;;;;;;;6.13;3.42;;;;;;;16.02;86.16;94878.56;5030555;28;20221;-62
2022/10/26 01:33:19;;;;;;;10.10;3.58;;;;;;;16.02;86.54;94876.00;5029173;28;20194;-63
2022/10/26 01:35:54;;;;;;;12.30;4.25;;;;;;;16.01;86.49;94870.06;5030668;28;20534;-62
2022/10/26 01:38:23;;;;;;;9.57;3.72;;;;;;;15.99;86.92;94869.41;5012650;28;20198;-63
2022/10/26 01:40:58;;;;;;;5.93;3.65;;;;;;;16.02;86.70;94868.31;5012514;28;20249;-63
2022/10/26 01:43:27;;;;;;;10.95;3.75;;;;;;;16.15;85.86;94891.72;5033975;28;20570;-59
2022/10/26 01:45:54;;;;;;;11.38;4.13;;;;;;;16.22;86.00;94885.78;5034074;28;20206;-63
2022/10/26 01:48:21;;;;;;;8.15;4.15;;;;;;;16.36;84.85;94897.22;5033757;28;20191;-63
2022/10/26 01:50:51;;;;;;;7.57;4.40;;;;;;;16.25;85.45;94882.13;5033693;28;20631;-61
2022/10/26 01:53:18;;;;;;;6.22;3.88;;;;;;;16.40;84.37;94906.19;5033820;28;20191;-63
2022/10/26 01:55:46;;;;;;;12.35;4.13;;;;;;;16.44;84.54;94907.50;5033531;28;20281;-61
2022/10/26 01:58:29;;;;;;;7.20;3.83;;;;;;;16.36;84.81;94903.13;5033621;28;20228;-63
2022/10/26 02:01:21;;;;;;;8.38;4.35;;;;;;;16.43;84.19;94914.38;5033543;28;20194;-60
2022/10/26 02:03:55;;;;;;;10.23;4.43;;;;;;;16.46;83.88;94915.84;5005190;28;20205;-63
2022/10/26 02:06:50;;;;;;;9.15;4.57;;;;;;;16.29;85.39;94888.53;5033492;28;20205;-61
2022/10/26 02:09:33;;;;;;;10.60;4.68;;;;;;;16.49;84.88;94905.25;5033689;28;20213;-60
2022/10/26 02:12:05;;;;;;;8.35;4.63;;;;;;;16.32;84.30;94914.66;5033516;28;20276;-60
2022/10/26 02:14:48;;;;;;;8.52;4.40;;;;;;;16.16;85.29;94896.69;5033471;28;20225;-62
2022/10/26 02:17:28;;;;;;;7.95;4.47;;;;;;;16.10;83.43;94937.56;5015537;28;20209;-60
2022/10/26 02:20:06;;;;;;;11.85;4.78;;;;;;;15.95;82.94;94940.75;5033490;28;20213;-62
2022/10/26 02:22:38;;;;;;;12.85;5.40;;;;;;;16.13;81.27;94971.41;5033179;28;20268;-61
2022/10/26 02:25:10;;;;;;;9.50;5.00;;;;;;;16.04;81.87;94963.84;5033345;28;20214;-59
2022/10/26 02:27:41;;;;;;;19.40;5.40;;;;;;;15.85;83.68;94934.13;5033155;28;20193;-60
2022/10/26 02:30:09;;;;;;;10.02;6.10;;;;;;;15.66;85.62;94893.34;5033107;28;20305;-60
2022/10/26 02:32:38;;;;;;;13.70;6.20;;;;;;;15.45;87.74;94857.88;5032967;28;20183;-60
2022/10/26 02:35:04;;;;;;;17.17;6.90;;;;;;;15.38;89.78;94836.34;5033110;28;20213;-60
2022/10/26 02:37:34;;;;;;;10.00;6.20;;;;;;;15.19;90.52;94838.38;5032970;28;20680;-60
2022/10/26 02:40:04;;;;;;;23.67;7.28;;;;;;;15.04;91.89;94831.25;5032994;28;20404;-61
2022/10/26 02:42:30;;;;;;;19.40;6.85;;;;;;;14.75;93.62;94807.72;5032863;28;20194;-63
2022/10/26 02:45:02;;;;;;;10.63;6.53;;;;;;;14.67;95.62;94810.22;5033045;28;20210;-63
2022/10/26 02:47:28;;;;;;;15.60;7.60;;;;;;;14.83;94.08;94833.34;5033062;28;20213;-60
2022/10/26 02:49:55;;;;;;;20.60;8.38;;;;;;;14.84;94.97;94836.72;5033021;28;20651;-60
2022/10/26 02:52:36;;;;;;;20.55;8.30;;;;;;;14.81;94.32;94842.94;5015030;28;20197;-60
2022/10/26 02:55:08;;;;;;;19.15;7.80;;;;;;;14.79;94.90;94837.16;5032597;28;20264;-60
2022/10/26 02:57:40;;;;;;;13.77;7.55;;;;;;;14.62;96.35;94827.00;5032687;28;20236;-62
2022/10/26 03:00:08;;;;;;;20.77;8.25;;;;;;;14.45;98.12;94835.50;5063092;22;20217;-61
2022/10/26 03:02:33;;;;;;;20.40;8.77;;;;;;;14.56;97.54;94858.28;5072559;28;20659;-58
2022/10/26 03:05:13;;;;;;;21.80;8.35;;;;;;;14.39;98.81;94856.53;5072639;28;20771;-59
2022/10/26 03:07:38;;;;;;;19.33;7.90;;;;;;;14.50;97.50;94876.78;5072558;28;20210;-60
2022/10/26 03:10:04;;;;;;;19.35;8.00;;;;;;;14.39;99.16;94877.00;5072670;28;20406;-60
2022/10/26 03:12:30;;;;;;;23.10;7.82;;;;;;;14.56;97.75;94894.91;5072407;28;20678;-63
2022/10/26 03:14:55;;;;;;;12.73;7.40;;;;;;;14.69;96.23;94902.19;5072795;28;20228;-62
2022/10/26 03:17:20;;;;;;;16.83;7.65;;;;;;;14.49;97.00;94899.00;5072229;28;20205;-62
2022/10/26 03:19:46;;;;;;;16.98;8.15;;;;;;;14.16;99.78;94889.41;5072424;28;20299;-63
2022/10/26 03:22:11;;;;;;;20.92;7.65;;;;;;;14.13;100.00;94897.38;5072353;28;20675;-61
2022/10/26 03:24:36;;;;;;;20.27;7.57;;;;;;;14.25;100.00;94906.44;5072444;28;20208;-63
2022/10/26 03:27:02;;;;;;;16.27;7.78;;;;;;;14.13;100.00;94915.28;5072142;28;20326;-64
2022/10/26 03:29:27;;;;;;;16.98;6.55;;;;;;;14.24;100.00;94917.63;5072242;28;20654;-64
2022/10/26 03:31:54;;;;;;;12.63;6.72;;;;;;;14.17;100.00;94914.84;5072137;28;20189;-65
2022/10/26 03:34:20;;;;;;;11.50;6.95;;;;;;;14.24;100.00;94917.63;5054032;28;20205;-64
2022/10/26 03:36:46;;;;;;;10.70;6.80;;;;;;;14.30;100.00;94930.66;5053868;28;20685;-63
2022/10/26 03:39:11;;;;;;;17.35;7.18;;;;;;;14.29;100.00;94925.69;5072103;28;20209;-64
2022/10/26 03:41:37;;;;;;;13.65;7.53;;;;;;;14.38;100.00;94931.69;5070582;28;20708;-64
2022/10/26 03:44:02;;;;;;;15.23;7.18;;;;;;;14.39;100.00;94923.06;5071594;28;20223;-63
2022/10/26 03:46:28;;;;;;;10.27;6.60;;;;;;;14.51;100.00;94935.47;5071809;28;20187;-63
2022/10/26 03:48:53;;;;;;;12.02;7.35;;;;;;;14.44;100.00;94931.09;5071790;28;20772;-63
2022/10/26 03:51:18;;;;;;;10.98;6.60;;;;;;;14.52;100.00;94928.63;5071802;28;20181;-61
2022/10/26 03:53:44;;;;;;;11.18;6.07;;;;;;;14.56;100.00;94935.84;5071832;28;20193;-61
2022/10/26 03:56:09;;;;;;;12.15;6.45;;;;;;;14.58;100.00;94936.50;5071819;28;20711;-60
2022/10/26 03:58:35;;;;;;;16.45;7.00;;;;;;;14.65;100.00;94937.53;5071169;28;20196;-60
2022/10/26 04:01:00;;;;;;;11.38;6.85;;;;;;;14.57;100.00;94937.44;5071674;28;20196;-65
2022/10/26 04:03:25;;;;;;;11.57;6.82;;;;;;;14.67;100.00;94938.19;5071780;28;20191;-66
2022/10/26 04:05:51;;;;;;;13.52;6.78;;;;;;;14.67;100.00;94937.38;5070137;28;20752;-64
2022/10/26 04:08:16;;;;;;;13.77;6.85;;;;;;;14.82;100.00;94952.06;5071504;28;20189;-64
2022/10/26 04:10:44;;;;;;;13.52;6.35;;;;;;;14.80;100.00;94951.41;5070117;28;20208;-63
2022/10/26 04:13:10;;;;;;;13.63;6.75;;;;;;;14.83;100.00;94948.53;5071418;28;20373;-64
2022/10/26 04:15:35;;;;;;;14.05;6.25;;;;;;;14.78;100.00;94948.19;5052668;28;20740;-64
2022/10/26 04:18:01;;;;;;;11.98;6.18;;;;;;;14.82;100.00;94941.84;5068887;28;20216;-63
2022/10/26 04:20:29;;;;;;;7.10;5.30;;;;;;;14.83;100.00;94945.97;5071195;28;20220;-61
2022/10/26 04:23:05;;;;;;;15.63;5.97;;;;;;;14.95;100.00;94952.47;5071323;28;20188;-61
2022/10/26 04:25:32;;;;;;;12.15;5.75;;;;;;;14.99;100.00;94955.53;5071185;28;20212;-61
2022/10/26 04:27:59;;;;;;;13.65;5.57;;;;;;;15.04;100.00;94964.41;5068197;23;20218;-64
2022/10/26 04:30:25;;;;;;;11.13;5.95;;;;;;;15.03;100.00;94957.66;5031248;28;20350;-63
2022/10/26 04:32:50;;;;;;;11.10;5.97;;;;;;;15.05;100.00;94960.06;5030135;28;20641;-63
2022/10/26 04:35:16;;;;;;;11.45;6.15;;;;;;;15.23;99.95;94975.41;5031209;28;20261;-60
2022/10/26 04:37:42;;;;;;;16.08;6.57;;;;;;;15.11;100.00;94962.84;5031241;28;20218;-62
2022/10/26 04:40:08;;;;;;;13.98;7.10;;;;;;;14.93;100.00;94944.13;5031276;28;20210;-62
2022/10/26 04:42:41;;;;;;;14.43;6.50;;;;;;;15.03;100.00;94959.41;5031117;28;20187;-60
2022/10/26 04:45:07;;;;;;;16.80;6.70;;;;;;;14.94;100.00;94948.31;5013228;28;20217;-60
2022/10/26 04:47:33;;;;;;;11.30;5.97;;;;;;;14.87;100.00;94949.84;5031158;28;20672;-63
2022/10/26 04:49:58;;;;;;;11.13;6.28;;;;;;;14.99;100.00;94958.09;5013014;28;20216;-63
2022/10/26 04:52:23;;;;;;;11.80;5.43;;;;;;;15.28;100.00;94955.25;5013135;28;20251;-62
2022/10/26 04:54:49;;;;;;;14.73;7.63;;;;;;;15.83;100.00;94977.06;5030919;28;20296;-60
2022/10/26 04:57:15;;;;;;;24.52;7.80;;;;;;;15.62;100.00;95043.25;5031004;28;20542;-63
2022/10/26 04:59:40;;;;;;;20.73;8.60;;;;;;;15.57;100.00;95091.63;5030807;28;20626;-60
2022/10/26 05:02:05;;;;;;;19.40;8.65;;;;;;;15.62;100.00;94989.44;5030821;28;20182;-62
2022/10/26 05:04:31;;;;;;;27.85;8.88;;;;;;;15.30;100.00;95104.50;5030868;28;20198;-64
2022/10/26 05:06:56;;;;;;;21.23;7.55;;;;;;;14.90;100.00;95076.75;5030786;28;20261;-64
2022/10/26 05:09:22;;;;;;;21.25;7.55;;;;;;;14.66;100.00;95067.09;5030956;28;20217;-63
2022/10/26 05:11:47;;;;;;;18.02;6.45;;;;;;;14.44;100.00;95049.59;5029692;28;20213;-64
2022/10/26 05:14:12;;;;;;;19.05;6.78;;;;;;;14.35;100.00;95040.19;5030878;28;20217;-60
2022/10/26 05:16:38;;;;;;;17.52;7.13;;;;;;;14.31;100.00;95046.53;5031603;28;20724;-63
2022/10/26 05:19:04;;;;;;;21.70;7.53;;;;;;;14.12;100.00;95026.94;5034156;28;20744;-61
2022/10/26 05:21:30;;;;;;;20.77;8.15;;;;;;;14.04;100.00;95015.81;5034293;28;20668;-61
2022/10/26 05:23:55;;;;;;;17.73;8.13;;;;;;;14.11;100.00;95024.53;5016577;28;20304;-61
2022/10/26 05:26:21;;;;;;;15.13;8.30;;;;;;;14.11;100.00;95027.09;5034388;28;20262;-62
2022/10/26 05:28:47;;;;;;;18.80;8.32;;;;;;;14.00;100.00;95020.41;5034552;28;20198;-61
2022/10/26 05:31:13;;;;;;;18.40;9.32;;;;;;;13.87;100.00;95001.25;5034282;28;20197;-62
2022/10/26 05:33:38;;;;;;;15.50;7.88;;;;;;;13.78;100.00;95008.00;5034265;28;20205;-64
2022/10/26 05:36:04;;;;;;;14.10;7.72;;;;;;;13.87;100.00;95008.91;5034107;28;20206;-62
2022/10/26 05:38:30;;;;;;;21.10;8.73;;;;;;;13.90;100.00;95022.22;5033840;28;20193;-61
2022/10/26 05:40:55;;;;;;;18.48;8.82;;;;;;;14.10;100.00;95028.03;5033902;28;20323;-61
2022/10/26 05:43:23;;;;;;;22.55;8.80;;;;;;;13.98;100.00;95026.63;5032845;28;20220;-61
2022/10/26 05:45:52;;;;;;;16.42;8.57;;;;;;;14.13;100.00;95041.38;5014182;28;20206;-62
2022/10/26 05:48:19;;;;;;;24.67;8.93;;;;;;;14.27;100.00;95063.91;5034046;28;20244;-62
2022/10/26 05:50:44;;;;;;;17.73;8.35;;;;;;;14.01;100.00;95034.81;5033238;28;20202;-61
2022/10/26 05:53:10;;;;;;;23.90;9.03;;;;;;;14.18;100.00;95054.50;5033192;28;20194;-62
2022/10/26 05:55:36;;;;;;;20.75;9.35;;;;;;;14.04;100.00;95056.72;5033509;28;20198;-61
2022/10/26 05:58:02;;;;;;;19.77;8.93;;;;;;;14.08;100.00;95051.19;5033849;28;20194;-62
2022/10/26 06:00:28;;;;;;;17.73;7.93;;;;;;;14.24;100.00;95063.38;5033444;28;20202;-60
2022/10/26 06:03:42;;;;;;;21.60;9.40;;;;;;;14.33;100.00;95067.66;5033624;28;20195;-61
2022/10/26 06:06:11;;;;;;;21.48;8.88;;;;;;;14.39;100.00;95081.63;5072181;22;20232;-60
2022/10/26 06:08:37;;;;;;;20.40;8.33;;;;;;;14.36;100.00;95072.53;5073361;28;20196;-61
2022/10/26 06:11:03;;;;;;;21.05;8.98;;;;;;;14.38;100.00;95080.03;5073705;28;20640;-62
2022/10/26 06:13:28;;;;;;;17.50;8.05;;;;;;;14.27;100.00;95063.09;5073454;28;20177;-61
2022/10/26 06:16:09;;;;;;;21.30;9.05;;;;;;;14.40;100.00;95067.91;5073041;28;20590;-62
2022/10/26 06:18:55;;;;;;;13.23;7.65;;;;;;;14.49;100.00;95090.88;5073210;28;20799;-62
2022/10/26 06:21:36;;;;;;;17.63;8.30;;;;;;;14.52;100.00;95074.44;5071925;28;20236;-60
2022/10/26 06:24:13;;;;;;;16.25;8.57;;;;;;;14.63;100.00;95084.47;5073145;28;20240;-61
2022/10/26 06:26:49;;;;;;;19.75;7.45;;;;;;;14.72;100.00;95098.97;5073358;28;20266;-63
2022/10/26 06:29:53;;;;;;;15.02;8.90;;;;;;;14.86;100.00;95109.53;5071876;28;20212;-63
2022/10/26 06:32:22;;;;;;;17.83;8.40;;;;;;;14.80;100.00;95094.75;5063622;28;20205;-61
2022/10/26 06:34:49;;;;;;;30.30;8.77;;;;;;;14.75;100.00;95073.88;5073282;28;20209;-61
2022/10/26 06:37:15;;;;;;;19.13;9.13;;;;;;;14.83;100.00;95075.72;5072961;28;20293;-62
2022/10/26 06:39:45;;;;;;;13.05;8.35;;;;;;;15.04;100.00;95089.88;5073124;28;20283;-60
2022/10/26 06:42:11;;;;;;;18.55;8.95;;;;;;;15.15;100.00;95105.00;5073232;28;20192;-63
2022/10/26 06:44:37;;;;;;;14.88;9.38;;;;;;;15.30;100.00;95115.53;5063646;23;20308;-64
2022/10/26 06:47:21;;;;;;;21.02;9.90;;;;;;;15.43;100.00;95128.03;5032960;28;20268;-63
2022/10/26 06:49:47;;;;;;;19.25;9.18;;;;;;;15.57;100.00;95140.31;5033102;28;20214;-64
2022/10/26 06:52:19;;;;;;;18.88;8.13;;;;;;;15.66;100.00;95144.53;5033076;28;20197;-61
2022/10/26 06:54:55;;;;;;;18.42;7.93;;;;;;;15.65;100.00;95142.94;5032755;28;20210;-65
2022/10/26 06:57:32;;;;;;;17.63;8.70;;;;;;;15.76;100.00;95153.75;5032638;28;20340;-65
2022/10/26 07:00:18;;;;;;;17.48;8.70;;;;;;;15.86;100.00;95158.78;5014953;28;20718;-64
2022/10/26 07:02:44;;;;;;;17.80;8.65;;;;;;;15.97;100.00;95163.69;5032816;28;20736;-64
2022/10/26 07:05:11;;;;;;;15.73;9.32;;;;;;;16.04;100.00;95167.25;5032828;28;20301;-64
2022/10/26 07:07:42;;;;;;;18.30;9.88;;;;;;;16.16;100.00;95171.16;5032459;28;20649;-64
2022/10/26 07:10:09;;;;;;;20.33;8.57;;;;;;;16.23;100.00;95173.94;5032794;28;20210;-64
2022/10/26 07:12:35;;;;;;;20.15;9.23;;;;;;;16.09;100.00;95170.19;5032543;28;20190;-64
2022/10/26 07:15:00;;;;;;;18.30;9.30;;;;;;;16.23;100.00;95173.94;5032321;28;20671;-64
2022/10/26 07:17:27;;;;;;;16.92;8.35;;;;;;;16.30;100.00;95186.00;5032407;28;20213;-64
2022/10/26 07:19:53;;;;;;;18.35;8.68;;;;;;;16.36;100.00;95182.84;5032712;28;20289;-64
2022/10/26 07:22:19;;;;;;;17.83;7.88;;;;;;;16.40;100.00;95181.56;5032391;28;20680;-63
2022/10/26 07:24:44;;;;;;;20.52;10.15;;;;;;;16.38;100.00;95162.97;5014557;28;20206;-64
2022/10/26 07:27:10;;;;;;;12.55;8.15;;;;;;;16.53;100.00;95188.91;5032256;28;20313;-64
2022/10/26 07:29:35;;;;;;;18.98;8.60;;;;;;;16.58;100.00;95190.03;5032448;28;20220;-64
2022/10/26 07:32:00;;;;;;;21.20;9.02;;;;;;;16.59;100.00;95185.72;5032317;28;20190;-64
2022/10/26 07:34:26;;;;;;;13.32;8.68;;;;;;;16.55;100.00;95192.94;5030860;28;20576;-64
2022/10/26 07:36:51;;;;;;;17.08;8.32;;;;;;;16.76;100.00;95190.81;5031964;28;20248;-66
2022/10/26 07:39:17;;;;;;;14.05;9.18;;;;;;;16.89;100.00;95190.34;5014188;28;20634;-64
2022/10/26 07:41:44;;;;;;;16.75;9.40;;;;;;;17.08;100.00;95214.97;5032295;28;20731;-65
2022/10/26 07:44:09;;;;;;;17.38;8.65;;;;;;;17.19;100.00;95217.28;5032177;28;20218;-63
2022/10/26 07:46:35;;;;;;;14.95;9.50;;;;;;;17.19;100.00;95215.50;5014408;28;20575;-65
2022/10/26 07:49:00;;;;;;;19.30;9.45;;;;;;;17.48;100.00;95233.09;5032155;28;20220;-63
2022/10/26 07:51:26;;;;;;;17.90;7.40;;;;;;;17.49;100.00;95237.31;5032008;28;20236;-62
2022/10/26 07:53:51;;;;;;;11.57;7.05;;;;;;;17.60;100.00;95267.84;5031948;28;20214;-62
2022/10/26 07:56:17;;;;;;;10.45;6.70;;;;;;;17.73;100.00;95252.78;5031701;28;20214;-64
2022/10/26 07:58:42;;;;;;;16.33;6.80;;;;;;;17.87;100.00;95253.91;5030274;28;20194;-63
2022/10/26 08:01:11;;;;;;;12.15;7.65;;;;;;;17.87;100.00;95285.59;5031992;28;20186;-63
2022/10/26 08:03:36;;;;;;;5.80;4.80;;;;;;;17.80;100.00;95294.91;5031870;28;20689;-65
2022/10/26 08:06:03;;;;;;;11.20;5.55;;;;;;;17.86;100.00;95325.13;5014154;28;20269;-65
2022/10/26 08:08:30;;;;;;;7.05;4.47;;;;;;;17.97;100.00;95311.19;5031650;28;20722;-65
2022/10/26 08:10:57;;;;;;;7.57;4.15;;;;;;;18.22;99.61;95331.63;5031662;28;20190;-65
2022/10/26 08:13:22;;;;;;;10.05;4.22;;;;;;;18.53;98.97;95329.25;5047143;22;20235;-66
2022/10/26 08:15:48;;;;;;;9.40;4.57;;;;;;;18.83;98.01;95350.97;5071220;28;20208;-65
2022/10/26 08:18:13;;;;;;;9.38;3.90;;;;;;;19.09;97.83;95349.81;5070908;28;20181;-64
2022/10/26 08:20:38;;;;;;;9.32;4.72;;;;;;;19.26;96.31;95376.34;5071794;28;20305;-65
2022/10/26 08:23:05;;;;;;;11.70;5.40;;;;;;;19.45;94.34;95401.00;5071410;28;20184;-65
2022/10/26 08:25:31;;;;;;;9.32;4.70;;;;;;;19.75;93.78;95410.59;5071460;28;20204;-66
2022/10/26 08:28:01;;;;;;;9.45;4.30;;;;;;;19.85;90.58;95455.88;5071538;28;20666;-67
2022/10/26 08:30:28;;;;;;;6.65;4.15;;;;;;;19.88;89.98;95440.03;5071462;28;20193;-64
2022/10/26 08:33:01;;;;;;;7.55;4.60;;;;;;;19.66;84.50;95420.13;5071517;28;20224;-64
2022/10/26 08:35:27;;;;;;;7.72;4.15;;;;;;;19.71;82.68;95402.38;5067833;22;20237;-63
2022/10/26 08:37:53;;;;;;;6.65;4.68;;;;;;;20.04;80.18;95437.41;5013488;28;20252;-63
2022/10/26 08:40:23;;;;;;;11.45;4.50;;;;;;;20.07;80.22;95429.31;5031031;28;20206;-65
2022/10/26 08:42:55;;;;;;;11.20;5.10;;;;;;;20.07;79.12;95444.81;5031160;28;20170;-64
2022/10/26 08:45:20;;;;;;;9.02;4.53;;;;;;;19.95;74.74;95440.19;5031287;28;20218;-61
2022/10/26 08:47:49;;;;;;;11.25;4.10;;;;;;;19.65;74.44;95408.22;5031329;28;20289;-63
2022/10/26 08:50:36;;;;;;;7.50;4.22;;;;;;;20.40;72.66;95449.84;5031345;28;20206;-62
2022/10/26 08:53:03;;;;;;;5.60;3.85;;;;;;;20.69;70.82;95478.41;5030822;28;20190;-63
2022/10/26 08:55:52;;;;;;;6.57;3.88;;;;;;;20.51;69.19;95490.78;5030818;28;20236;-62
2022/10/26 08:58:22;;;;;;;8.00;3.42;;;;;;;20.56;68.46;95502.22;5031101;28;20237;-60
2022/10/26 09:00:51;;;;;;;10.68;3.88;;;;;;;20.73;66.71;95532.16;5030926;28;20249;-59
2022/10/26 09:03:17;;;;;;;11.00;4.38;;;;;;;21.03;68.22;95488.41;5030558;28;20189;-61
2022/10/26 09:06:17;;;;;;;5.35;4.10;;;;;;;21.47;68.47;95468.63;5031063;28;20206;-60
2022/10/26 09:09:28;;;;;;;10.38;4.53;;;;;;;21.88;62.26;95601.88;5030915;28;20590;-59
2022/10/26 09:11:59;;;;;;;8.45;5.82;;;;;;;22.06;62.34;95583.44;4970010;28;20227;-60
2022/10/26 09:14:48;;;;;;;7.55;4.20;;;;;;;22.16;64.72;95512.25;5007488;28;20234;-61
2022/10/26 09:17:21;;;;;;;5.13;3.05;;;;;;;22.18;60.35;95607.94;5030729;28;20221;-60
2022/10/26 09:20:08;;;;;;;6.07;3.42;;;;;;;22.13;60.16;95599.88;5030809;28;20233;-59
2022/10/26 09:22:45;;;;;;;5.38;3.00;;;;;;;22.46;61.03;95567.47;5030753;28;20194;-61
2022/10/26 09:25:22;;;;;;;9.88;3.83;;;;;;;22.42;57.39;95654.34;5030482;28;20715;-59
2022/10/26 09:28:14;;;;;;;4.35;2.83;;;;;;;22.73;58.68;95597.94;5030582;28;20186;-60
2022/10/26 09:30:42;;;;;;;8.35;4.00;;;;;;;22.82;57.95;95602.03;5030534;28;20213;-59
2022/10/26 09:33:15;;;;;;;4.22;3.38;;;;;;;23.21;56.62;95635.41;5030628;28;20194;-60
2022/10/26 09:35:46;;;;;;;6.57;3.50;;;;;;;23.48;56.90;95619.16;5030343;28;20255;-60
2022/10/26 09:38:17;;;;;;;8.95;3.10;;;;;;;23.30;54.76;95671.44;5030385;28;20190;-60
2022/10/26 09:40:48;;;;;;;7.63;3.30;;;;;;;23.14;55.21;95643.13;5030496;28;20202;-60
2022/10/26 09:43:56;;;;;;;4.03;2.92;;;;;;;23.67;51.54;95737.19;5029292;28;20938;-61
2022/10/26 09:46:43;;;;;;;3.45;3.15;;;;;;;23.70;52.09;95695.25;5029295;28;20568;-60
2022/10/26 09:49:11;;;;;;;4.68;3.00;;;;;;;23.67;51.99;95691.25;5030695;28;20210;-61
2022/10/26 09:51:38;;;;;;;3.55;2.30;;;;;;;23.41;51.96;95672.00;5030416;28;20672;-64
2022/10/26 09:54:14;;;;;;;7.28;3.15;;;;;;;23.84;52.05;95671.00;5030427;28;20344;-64
2022/10/26 09:56:40;;;;;;;5.78;3.25;;;;;;;24.13;50.35;95722.88;5030161;28;20209;-63
2022/10/26 09:59:06;;;;;;;4.45;2.70;;;;;;;24.32;49.36;95743.03;5030301;28;20292;-65
2022/10/26 10:01:34;;;;;;;3.88;2.13;;;;;;;24.36;49.55;95726.06;5030469;28;20270;-63
2022/10/26 10:04:11;;;;;;;6.10;2.80;;;;;;;24.66;47.75;95721.50;5032988;28;20292;-64
2022/10/26 10:06:37;;;;;;;7.95;2.78;;;;;;;24.69;47.10;95727.13;5033581;28;20332;-62
2022/10/26 10:09:09;;;;;;;2.45;1.83;;;;;;;24.74;47.08;95722.19;5032285;28;20221;-62
2022/10/26 10:11:56;;;;;;;5.95;2.30;;;;;;;24.99;46.98;95717.31;5015826;28;20683;-61
2022/10/26 10:14:27;;;;;;;7.45;2.80;;;;;;;24.87;47.10;95695.44;5033754;28;20222;-60
2022/10/26 10:16:56;;;;;;;3.22;2.30;;;;;;;25.01;45.83;95727.56;5033247;28;20241;-62
2022/10/26 10:19:27;;;;;;;5.45;2.50;;;;;;;25.31;45.51;95729.69;5033607;28;20218;-61
2022/10/26 10:21:58;;;;;;;6.95;2.28;;;;;;;25.33;44.56;95734.72;5033385;28;20170;-59
2022/10/26 10:24:28;;;;;;;4.97;2.25;;;;;;;25.29;45.01;95710.84;5033281;28;20210;-60
2022/10/26 10:26:58;;;;;;;3.75;2.50;;;;;;;24.80;44.46;95711.03;5033353;28;20248;-60
2022/10/26 10:29:25;;;;;;;3.47;2.00;;;;;;;25.04;44.16;95727.16;5033380;28;20299;-60
2022/10/26 10:31:56;;;;;;;4.72;2.17;;;;;;;25.03;45.03;95670.91;5033295;28;20205;-61
2022/10/26 10:34:21;;;;;;;5.85;2.53;;;;;;;25.16;46.48;95618.88;5015445;28;20245;-60
2022/10/26 10:36:49;;;;;;;6.55;2.72;;;;;;;25.37;45.60;95648.19;5015529;28;20249;-64
2022/10/26 10:39:34;;;;;;;3.13;2.08;;;;;;;24.91;43.46;95723.47;5032818;28;20229;-60
2022/10/26 10:42:02;;;;;;;4.13;2.33;;;;;;;24.56;43.91;95677.63;5033085;28;20190;-64
2022/10/26 10:44:30;;;;;;;5.45;2.83;;;;;;;25.03;44.93;95647.47;5033210;28;20599;-60
2022/10/26 10:47:03;;;;;;;5.85;2.53;;;;;;;24.92;44.18;95675.66;5032974;28;20217;-61
2022/10/26 10:49:30;;;;;;;4.38;2.10;;;;;;;24.99;44.31;95673.88;5033098;28;20237;-61
2022/10/26 10:51:57;;;;;;;7.90;2.28;;;;;;;24.60;45.01;95626.84;5032831;28;20218;-60
2022/10/26 10:54:22;;;;;;;8.23;2.70;;;;;;;24.26;46.09;95572.22;5032985;28;20629;-60
2022/10/26 10:56:52;;;;;;;4.07;2.40;;;;;;;24.58;46.17;95592.41;5033217;28;20245;-64
2022/10/26 10:59:35;;;;;;;3.38;2.40;;;;;;;24.71;45.33;95600.25;5033066;28;20220;-60
2022/10/26 11:02:19;;;;;;;2.50;1.70;;;;;;;24.35;45.71;95593.66;5032757;28;20379;-61
2022/10/26 11:05:18;;;;;;;6.28;2.53;;;;;;;24.18;45.15;95600.94;5033103;28;20620;-61
2022/10/26 11:07:51;;;;;;;3.92;2.35;;;;;;;24.22;45.90;95576.19;5031678;28;20233;-60
2022/10/26 11:10:20;;;;;;;3.60;1.88;;;;;;;24.17;46.03;95550.78;5032772;28;20696;-60
2022/10/26 11:13:01;;;;;;;4.97;2.25;;;;;;;23.93;46.11;95545.19;5032562;28;20273;-60
2022/10/26 11:15:31;;;;;;;6.13;2.55;;;;;;;23.72;47.71;95486.31;5031858;28;20234;-60
2022/10/26 11:18:06;;;;;;;5.00;2.00;;;;;;;24.27;46.58;95534.03;5032396;28;20218;-61
2022/10/26 11:20:38;;;;;;;4.65;2.13;;;;;;;24.21;45.85;95551.22;5070184;22;20232;-60
2022/10/26 11:23:25;;;;;;;6.53;1.98;;;;;;;23.88;46.10;95537.16;5072261;28;20195;-62
2022/10/26 11:26:17;;;;;;;9.93;2.92;;;;;;;23.80;47.48;95501.75;5072187;28;20269;-60
2022/10/26 11:28:56;;;;;;;3.65;2.45;;;;;;;23.81;48.24;95472.19;5072463;28;20200;-60
2022/10/26 11:31:30;;;;;;;4.63;2.75;;;;;;;24.25;48.38;95468.44;5072392;28;20267;-59
2022/10/26 11:34:19;;;;;;;11.85;2.38;;;;;;;24.57;46.18;95545.78;5072440;28;20248;-60
2022/10/26 11:36:49;;;;;;;4.90;2.75;;;;;;;24.24;46.04;95535.22;5072067;28;20216;-60
2022/10/26 11:39:34;;;;;;;4.95;2.38;;;;;;;24.16;47.20;95493.78;5072205;28;20209;-60
2022/10/26 11:42:06;;;;;;;4.45;2.78;;;;;;;24.14;47.37;95490.56;5071605;28;20283;-60